sensor_id;sensor_type;location;lat;lon;timestamp;pressure;altitude;pressure_sealevel;temperature;humidity
81387;BME280;70842;50.744;7.114;2023-08-17T00:01:05;101251.06;;;22.15;77.32
81387;BME280;70842;50.744;7.114;2023-08-17T00:03:32;101261.84;;;22.15;77.02
81387;BME280;70842;50.744;7.114;2023-08-17T00:05:59;101256.13;;;21.96;77.64
81387;BME280;70842;50.744;7.114;2023-08-17T00:08:25;101259.69;;;21.96;77.76
81387;BME280;70842;50.744;7.114;2023-08-17T00:10:51;101268.53;;;21.90;78.63
81387;BME280;70842;50.744;7.114;2023-08-17T00:13:18;101276.63;;;21.90;78.82
81387;BME280;70842;50.744;7.114;2023-08-17T00:15:44;101274.88;;;22.12;77.25
81387;BME280;70842;50.744;7.114;2023-08-17T00:18:11;101265.72;;;21.98;77.41
81387;BME280;70842;50.744;7.114;2023-08-17T00:20:38;101270.50;;;22.11;77.30
81387;BME280;70842;50.744;7.114;2023-08-17T00:23:04;101259.72;;;22.25;76.96
81387;BME280;70842;50.744;7.114;2023-08-17T00:25:31;101267.69;;;22.04;77.42
81387;BME280;70842;50.744;7.114;2023-08-17T00:27:57;101273.41;;;22.09;77.57
81387;BME280;70842;50.744;7.114;2023-08-17T00:30:23;101280.69;;;21.86;78.00
81387;BME280;70842;50.744;7.114;2023-08-17T00:32:50;101286.66;;;21.96;77.52
81387;BME280;70842;50.744;7.114;2023-08-17T00:35:16;101279.34;;;22.19;76.67
81387;BME280;70842;50.744;7.114;2023-08-17T00:37:43;101283.25;;;21.80;77.90
81387;BME280;70842;50.744;7.114;2023-08-17T00:40:09;101285.53;;;21.68;78.24
81387;BME280;70842;50.744;7.114;2023-08-17T00:42:36;101282.28;;;21.95;77.91
81387;BME280;70842;50.744;7.114;2023-08-17T00:45:03;101281.16;;;21.90;77.61
81387;BME280;70842;50.744;7.114;2023-08-17T00:47:29;101281.34;;;21.88;77.85
81387;BME280;70842;50.744;7.114;2023-08-17T00:49:57;101282.06;;;21.59;78.89
81387;BME280;70842;50.744;7.114;2023-08-17T00:52:25;101273.66;;;21.77;78.46
81387;BME280;70842;50.744;7.114;2023-08-17T00:54:51;101274.00;;;21.82;78.68
81387;BME280;70842;50.744;7.114;2023-08-17T00:57:18;101276.41;;;21.46;79.63
81387;BME280;70842;50.744;7.114;2023-08-17T00:59:46;101267.81;;;21.73;78.72
81387;BME280;70842;50.744;7.114;2023-08-17T01:02:30;101266.28;;;21.71;78.82
81387;BME280;70842;50.744;7.114;2023-08-17T01:04:57;101264.03;;;21.60;79.27
81387;BME280;70842;50.744;7.114;2023-08-17T01:07:24;101265.34;;;21.64;78.79
81387;BME280;70842;50.744;7.114;2023-08-17T01:09:51;101264.03;;;21.60;78.99
81387;BME280;70842;50.744;7.114;2023-08-17T01:12:31;101262.78;;;21.48;79.35
81387;BME280;70842;50.744;7.114;2023-08-17T01:17:38;101252.06;;;21.77;78.60
81387;BME280;70842;50.744;7.114;2023-08-17T01:20:10;101255.81;;;21.53;79.22
81387;BME280;70842;50.744;7.114;2023-08-17T01:22:40;101264.22;;;21.58;78.85
81387;BME280;70842;50.744;7.114;2023-08-17T01:25:07;101264.59;;;21.70;78.70
81387;BME280;70842;50.744;7.114;2023-08-17T01:27:39;101262.63;;;21.64;78.75
81387;BME280;70842;50.744;7.114;2023-08-17T01:30:07;101254.31;;;21.73;78.27
81387;BME280;70842;50.744;7.114;2023-08-17T01:32:44;101254.75;;;21.62;78.45
81387;BME280;70842;50.744;7.114;2023-08-17T01:37:50;101255.38;;;21.87;77.71
81387;BME280;70842;50.744;7.114;2023-08-17T01:40:17;101247.88;;;21.74;77.83
81387;BME280;70842;50.744;7.114;2023-08-17T01:42:44;101249.53;;;21.98;77.42
81387;BME280;70842;50.744;7.114;2023-08-17T01:45:11;101254.00;;;21.91;77.41
81387;BME280;70842;50.744;7.114;2023-08-17T01:47:38;101258.59;;;22.05;76.90
81387;BME280;70842;50.744;7.114;2023-08-17T01:50:05;101257.84;;;21.97;77.26
81387;BME280;70842;50.744;7.114;2023-08-17T01:52:31;101262.69;;;21.78;77.47
81387;BME280;70842;50.744;7.114;2023-08-17T01:54:58;101266.09;;;21.72;77.98
81387;BME280;70842;50.744;7.114;2023-08-17T01:57:24;101264.03;;;21.60;78.46
81387;BME280;70842;50.744;7.114;2023-08-17T01:59:51;101274.16;;;21.58;78.72
81387;BME280;70842;50.744;7.114;2023-08-17T02:02:17;101274.03;;;21.51;79.20
81387;BME280;70842;50.744;7.114;2023-08-17T02:04:44;101271.63;;;21.79;78.35
81387;BME280;70842;50.744;7.114;2023-08-17T02:07:10;101268.22;;;21.62;78.78
81387;BME280;70842;50.744;7.114;2023-08-17T02:09:36;101263.75;;;21.69;78.33
81387;BME280;70842;50.744;7.114;2023-08-17T02:12:03;101272.78;;;21.62;78.96
81387;BME280;70842;50.744;7.114;2023-08-17T02:14:30;101277.84;;;21.57;78.46
81387;BME280;70842;50.744;7.114;2023-08-17T02:16:56;101276.72;;;21.51;78.55
81387;BME280;70842;50.744;7.114;2023-08-17T02:19:23;101277.16;;;21.63;77.93
81387;BME280;70842;50.744;7.114;2023-08-17T02:21:49;101273.34;;;21.72;77.48
81387;BME280;70842;50.744;7.114;2023-08-17T02:24:15;101268.41;;;21.61;77.65
81387;BME280;70842;50.744;7.114;2023-08-17T02:26:42;101261.25;;;21.68;77.08
81387;BME280;70842;50.744;7.114;2023-08-17T02:29:08;101263.47;;;21.87;76.52
81387;BME280;70842;50.744;7.114;2023-08-17T02:31:35;101250.63;;;21.89;76.52
81387;BME280;70842;50.744;7.114;2023-08-17T02:34:01;101257.94;;;21.81;77.18
81387;BME280;70842;50.744;7.114;2023-08-17T02:36:31;101251.66;;;21.65;77.43
81387;BME280;70842;50.744;7.114;2023-08-17T02:38:59;101250.75;;;21.73;77.27
81387;BME280;70842;50.744;7.114;2023-08-17T02:41:25;101244.50;;;21.95;76.31
81387;BME280;70842;50.744;7.114;2023-08-17T02:43:52;101238.53;;;21.85;76.77
81387;BME280;70842;50.744;7.114;2023-08-17T02:46:18;101240.31;;;21.70;77.54
81387;BME280;70842;50.744;7.114;2023-08-17T02:48:45;101235.97;;;21.69;77.62
81387;BME280;70842;50.744;7.114;2023-08-17T02:51:11;101227.06;;;21.46;78.40
81387;BME280;70842;50.744;7.114;2023-08-17T02:53:37;101226.81;;;21.55;78.29
81387;BME280;70842;50.744;7.114;2023-08-17T02:56:04;101224.94;;;21.56;78.40
81387;BME280;70842;50.744;7.114;2023-08-17T02:58:30;101223.41;;;21.39;78.92
81387;BME280;70842;50.744;7.114;2023-08-17T03:00:57;101227.91;;;21.24;79.72
81387;BME280;70842;50.744;7.114;2023-08-17T03:03:23;101223.97;;;21.71;77.72
81387;BME280;70842;50.744;7.114;2023-08-17T03:05:50;101218.28;;;21.66;78.31
81387;BME280;70842;50.744;7.114;2023-08-17T03:08:16;101217.66;;;21.42;79.03
81387;BME280;70842;50.744;7.114;2023-08-17T03:10:42;101220.72;;;21.16;79.76
81387;BME280;70842;50.744;7.114;2023-08-17T03:13:09;101225.69;;;21.50;78.55
81387;BME280;70842;50.744;7.114;2023-08-17T03:15:35;101223.34;;;21.47;78.50
81387;BME280;70842;50.744;7.114;2023-08-17T03:18:06;101217.69;;;21.34;79.30
81387;BME280;70842;50.744;7.114;2023-08-17T03:20:32;101215.91;;;21.49;78.67
81387;BME280;70842;50.744;7.114;2023-08-17T03:22:59;101213.28;;;21.41;79.47
81387;BME280;70842;50.744;7.114;2023-08-17T03:25:25;101219.75;;;21.54;78.53
81387;BME280;70842;50.744;7.114;2023-08-17T03:27:52;101209.66;;;21.71;78.04
81387;BME280;70842;50.744;7.114;2023-08-17T03:30:18;101214.97;;;21.42;79.13
81387;BME280;70842;50.744;7.114;2023-08-17T03:32:44;101225.09;;;21.77;77.97
81387;BME280;70842;50.744;7.114;2023-08-17T03:35:11;101217.72;;;21.56;78.00
81387;BME280;70842;50.744;7.114;2023-08-17T03:37:37;101217.13;;;21.24;79.61
81387;BME280;70842;50.744;7.114;2023-08-17T03:40:04;101208.97;;;21.32;79.26
81387;BME280;70842;50.744;7.114;2023-08-17T03:42:31;101217.59;;;21.27;79.77
81387;BME280;70842;50.744;7.114;2023-08-17T03:44:57;101217.59;;;21.05;80.55
81387;BME280;70842;50.744;7.114;2023-08-17T03:47:24;101218.25;;;21.29;79.51
81387;BME280;70842;50.744;7.114;2023-08-17T03:49:51;101212.09;;;20.90;81.46
81387;BME280;70842;50.744;7.114;2023-08-17T03:52:18;101220.13;;;21.29;79.96
81387;BME280;70842;50.744;7.114;2023-08-17T03:54:45;101220.91;;;21.37;79.63
81387;BME280;70842;50.744;7.114;2023-08-17T03:57:12;101222.09;;;21.35;79.65
81387;BME280;70842;50.744;7.114;2023-08-17T03:59:38;101217.78;;;21.26;79.97
81387;BME280;70842;50.744;7.114;2023-08-17T04:02:05;101223.03;;;21.19;80.42
81387;BME280;70842;50.744;7.114;2023-08-17T04:04:33;101231.56;;;21.31;79.52
81387;BME280;70842;50.744;7.114;2023-08-17T04:06:59;101229.47;;;21.41;79.35
81387;BME280;70842;50.744;7.114;2023-08-17T04:09:25;101231.31;;;21.40;79.43
81387;BME280;70842;50.744;7.114;2023-08-17T04:11:52;101232.94;;;21.27;79.53
81387;BME280;70842;50.744;7.114;2023-08-17T04:14:18;101239.63;;;21.00;80.55
81387;BME280;70842;50.744;7.114;2023-08-17T04:16:45;101236.56;;;21.11;80.26
81387;BME280;70842;50.744;7.114;2023-08-17T04:19:12;101237.59;;;21.55;78.61
81387;BME280;70842;50.744;7.114;2023-08-17T04:21:38;101234.59;;;21.05;80.34
81387;BME280;70842;50.744;7.114;2023-08-17T04:24:05;101241.84;;;21.05;80.12
81387;BME280;70842;50.744;7.114;2023-08-17T04:26:31;101242.16;;;21.10;80.06
81387;BME280;70842;50.744;7.114;2023-08-17T04:28:58;101250.13;;;21.26;79.40
81387;BME280;70842;50.744;7.114;2023-08-17T04:31:24;101252.63;;;21.05;79.91
81387;BME280;70842;50.744;7.114;2023-08-17T04:33:51;101246.50;;;21.11;79.72
81387;BME280;70842;50.744;7.114;2023-08-17T04:36:18;101247.09;;;21.29;79.27
81387;BME280;70842;50.744;7.114;2023-08-17T04:38:44;101256.28;;;21.12;79.48
81387;BME280;70842;50.744;7.114;2023-08-17T04:41:10;101267.34;;;21.17;79.86
81387;BME280;70842;50.744;7.114;2023-08-17T04:43:37;101266.88;;;21.36;79.13
81387;BME280;70842;50.744;7.114;2023-08-17T04:46:03;101273.78;;;20.77;80.69
81387;BME280;70842;50.744;7.114;2023-08-17T04:48:30;101273.72;;;20.93;80.42
81387;BME280;70842;50.744;7.114;2023-08-17T04:50:56;101274.41;;;20.87;80.50
81387;BME280;70842;50.744;7.114;2023-08-17T04:53:23;101273.22;;;20.89;80.14
81387;BME280;70842;50.744;7.114;2023-08-17T04:55:49;101286.34;;;20.92;80.38
81387;BME280;70842;50.744;7.114;2023-08-17T04:58:16;101288.16;;;21.00;79.68
81387;BME280;70842;50.744;7.114;2023-08-17T05:00:42;101293.09;;;20.88;79.69
81387;BME280;70842;50.744;7.114;2023-08-17T05:03:08;101291.19;;;21.05;78.03
81387;BME280;70842;50.744;7.114;2023-08-17T05:05:49;101290.88;;;20.92;78.05
81387;BME280;70842;50.744;7.114;2023-08-17T05:08:15;101291.53;;;20.63;78.47
81387;BME280;70842;50.744;7.114;2023-08-17T05:10:42;101290.78;;;20.77;78.03
81387;BME280;70842;50.744;7.114;2023-08-17T05:13:08;101289.38;;;20.43;78.72
81387;BME280;70842;50.744;7.114;2023-08-17T05:15:34;101279.47;;;20.43;77.97
81387;BME280;70842;50.744;7.114;2023-08-17T05:18:01;101290.47;;;20.72;77.38
81387;BME280;70842;50.744;7.114;2023-08-17T05:20:27;101293.25;;;20.48;77.31
81387;BME280;70842;50.744;7.114;2023-08-17T05:22:54;101290.78;;;20.77;76.54
81387;BME280;70842;50.744;7.114;2023-08-17T05:25:20;101290.41;;;20.80;76.45
81387;BME280;70842;50.744;7.114;2023-08-17T05:27:48;101295.00;;;20.80;76.11
81387;BME280;70842;50.744;7.114;2023-08-17T05:30:17;101295.03;;;20.64;75.91
81387;BME280;70842;50.744;7.114;2023-08-17T05:32:44;101292.78;;;20.83;75.43
81387;BME280;70842;50.744;7.114;2023-08-17T05:35:11;101296.06;;;21.02;75.37
81387;BME280;70842;50.744;7.114;2023-08-17T05:37:37;101306.81;;;20.71;75.86
81387;BME280;70842;50.744;7.114;2023-08-17T05:40:04;101302.59;;;20.68;75.87
81387;BME280;70842;50.744;7.114;2023-08-17T05:42:31;101297.78;;;20.94;75.62
81387;BME280;70842;50.744;7.114;2023-08-17T05:44:57;101307.78;;;20.78;75.68
81387;BME280;70842;50.744;7.114;2023-08-17T05:47:24;101309.16;;;20.74;76.02
81387;BME280;70842;50.744;7.114;2023-08-17T05:49:51;101303.22;;;20.78;76.26
81387;BME280;70842;50.744;7.114;2023-08-17T05:52:17;101312.56;;;20.60;76.55
81387;BME280;70842;50.744;7.114;2023-08-17T05:54:43;101304.31;;;20.61;76.68
81387;BME280;70842;50.744;7.114;2023-08-17T05:57:10;101313.63;;;20.35;77.37
81387;BME280;70842;50.744;7.114;2023-08-17T05:59:36;101313.78;;;20.17;77.52
81387;BME280;70842;50.744;7.114;2023-08-17T06:02:03;101318.84;;;20.44;76.74
81387;BME280;70842;50.744;7.114;2023-08-17T06:04:29;101320.34;;;20.47;76.42
81387;BME280;70842;50.744;7.114;2023-08-17T06:06:56;101314.22;;;20.69;76.81
81387;BME280;70842;50.744;7.114;2023-08-17T06:09:22;101325.88;;;20.61;76.15
81387;BME280;70842;50.744;7.114;2023-08-17T06:11:49;101324.59;;;20.25;77.14
81387;BME280;70842;50.744;7.114;2023-08-17T06:14:15;101321.91;;;20.25;77.17
81387;BME280;70842;50.744;7.114;2023-08-17T06:16:42;101318.19;;;20.26;76.87
81387;BME280;70842;50.744;7.114;2023-08-17T06:19:08;101324.91;;;20.30;76.77
81387;BME280;70842;50.744;7.114;2023-08-17T06:21:35;101322.72;;;20.42;76.22
81387;BME280;70842;50.744;7.114;2023-08-17T06:24:01;101324.22;;;20.36;76.85
81387;BME280;70842;50.744;7.114;2023-08-17T06:26:27;101318.50;;;20.47;76.59
81387;BME280;70842;50.744;7.114;2023-08-17T06:28:54;101317.00;;;20.37;76.57
81387;BME280;70842;50.744;7.114;2023-08-17T06:31:20;101317.88;;;20.29;77.30
81387;BME280;70842;50.744;7.114;2023-08-17T06:33:47;101317.69;;;19.90;78.48
81387;BME280;70842;50.744;7.114;2023-08-17T06:36:13;101321.03;;;20.08;77.99
81387;BME280;70842;50.744;7.114;2023-08-17T06:38:42;101323.25;;;20.29;77.37
81387;BME280;70842;50.744;7.114;2023-08-17T06:41:09;101321.88;;;20.41;76.50
81387;BME280;70842;50.744;7.114;2023-08-17T06:43:35;101323.34;;;20.52;76.44
81387;BME280;70842;50.744;7.114;2023-08-17T06:46:01;101319.50;;;20.38;76.80
81387;BME280;70842;50.744;7.114;2023-08-17T06:48:28;101320.09;;;20.72;75.64
81387;BME280;70842;50.744;7.114;2023-08-17T06:50:54;101324.06;;;20.46;76.60
81387;BME280;70842;50.744;7.114;2023-08-17T06:53:21;101327.88;;;20.67;76.62
81387;BME280;70842;50.744;7.114;2023-08-17T06:55:47;101320.84;;;20.97;74.95
81387;BME280;70842;50.744;7.114;2023-08-17T06:58:14;101326.47;;;20.79;75.34
81387;BME280;70842;50.744;7.114;2023-08-17T07:00:40;101325.72;;;20.93;75.24
81387;BME280;70842;50.744;7.114;2023-08-17T07:03:07;101325.91;;;21.31;74.05
81387;BME280;70842;50.744;7.114;2023-08-17T07:05:34;101325.50;;;21.11;74.10
81387;BME280;70842;50.744;7.114;2023-08-17T07:08:00;101331.25;;;21.08;74.64
81387;BME280;70842;50.744;7.114;2023-08-17T07:10:28;101333.25;;;21.14;74.24
81387;BME280;70842;50.744;7.114;2023-08-17T07:12:54;101338.47;;;21.16;74.01
81387;BME280;70842;50.744;7.114;2023-08-17T07:15:20;101340.78;;;21.19;74.35
81387;BME280;70842;50.744;7.114;2023-08-17T07:17:47;101334.16;;;21.29;74.44
81387;BME280;70842;50.744;7.114;2023-08-17T07:20:13;101329.22;;;21.41;73.85
81387;BME280;70842;50.744;7.114;2023-08-17T07:22:42;101335.06;;;21.22;73.88
81387;BME280;70842;50.744;7.114;2023-08-17T07:25:09;101336.75;;;21.23;74.38
81387;BME280;70842;50.744;7.114;2023-08-17T07:27:35;101343.56;;;21.03;74.79
81387;BME280;70842;50.744;7.114;2023-08-17T07:30:02;101340.63;;;21.20;74.66
81387;BME280;70842;50.744;7.114;2023-08-17T07:32:29;101347.75;;;21.44;74.13
81387;BME280;70842;50.744;7.114;2023-08-17T07:34:55;101361.03;;;21.45;73.78
81387;BME280;70842;50.744;7.114;2023-08-17T07:37:22;101365.06;;;21.49;73.13
81387;BME280;70842;50.744;7.114;2023-08-17T07:39:48;101371.97;;;21.52;72.95
81387;BME280;70842;50.744;7.114;2023-08-17T07:42:15;101364.03;;;21.50;73.17
81387;BME280;70842;50.744;7.114;2023-08-17T07:44:41;101366.69;;;20.81;75.53
81387;BME280;70842;50.744;7.114;2023-08-17T07:47:08;101367.38;;;20.75;75.49
81387;BME280;70842;50.744;7.114;2023-08-17T07:49:34;101372.78;;;20.75;75.23
81387;BME280;70842;50.744;7.114;2023-08-17T07:52:01;101374.72;;;21.05;74.45
81387;BME280;70842;50.744;7.114;2023-08-17T07:54:27;101370.81;;;20.99;75.26
81387;BME280;70842;50.744;7.114;2023-08-17T07:56:54;101376.41;;;20.98;74.87
81387;BME280;70842;50.744;7.114;2023-08-17T07:59:20;101366.94;;;21.10;74.70
81387;BME280;70842;50.744;7.114;2023-08-17T08:01:46;101369.91;;;21.31;73.64
81387;BME280;70842;50.744;7.114;2023-08-17T08:04:13;101359.34;;;21.44;73.89
81387;BME280;70842;50.744;7.114;2023-08-17T08:06:39;101368.66;;;21.42;74.23
81387;BME280;70842;50.744;7.114;2023-08-17T08:09:06;101373.03;;;20.41;76.39
81387;BME280;70842;50.744;7.114;2023-08-17T08:11:33;101366.59;;;20.58;76.83
81387;BME280;70842;50.744;7.114;2023-08-17T08:13:59;101365.31;;;20.93;76.03
81387;BME280;70842;50.744;7.114;2023-08-17T08:16:27;101362.72;;;21.46;74.22
81387;BME280;70842;50.744;7.114;2023-08-17T08:18:53;101364.03;;;21.20;75.15
81387;BME280;70842;50.744;7.114;2023-08-17T08:21:22;101365.53;;;21.53;75.21
81387;BME280;70842;50.744;7.114;2023-08-17T08:23:48;101364.34;;;21.55;73.55
81387;BME280;70842;50.744;7.114;2023-08-17T08:26:14;101357.09;;;21.56;73.54
81387;BME280;70842;50.744;7.114;2023-08-17T08:28:41;101349.66;;;21.81;72.98
81387;BME280;70842;50.744;7.114;2023-08-17T08:31:07;101350.78;;;21.94;73.18
81387;BME280;70842;50.744;7.114;2023-08-17T08:33:33;101343.75;;;21.62;74.34
81387;BME280;70842;50.744;7.114;2023-08-17T08:36:00;101344.75;;;21.39;74.08
81387;BME280;70842;50.744;7.114;2023-08-17T08:38:26;101349.41;;;21.45;74.32
81387;BME280;70842;50.744;7.114;2023-08-17T08:40:53;101348.88;;;21.19;74.92
81387;BME280;70842;50.744;7.114;2023-08-17T08:43:19;101343.88;;;21.38;74.10
81387;BME280;70842;50.744;7.114;2023-08-17T08:45:46;101350.00;;;21.55;74.03
81387;BME280;70842;50.744;7.114;2023-08-17T08:48:13;101343.88;;;21.69;73.69
81387;BME280;70842;50.744;7.114;2023-08-17T08:50:40;101351.25;;;21.44;74.57
81387;BME280;70842;50.744;7.114;2023-08-17T08:53:13;101343.09;;;21.83;73.31
81387;BME280;70842;50.744;7.114;2023-08-17T08:55:47;101358.19;;;21.69;73.89
81387;BME280;70842;50.744;7.114;2023-08-17T08:58:16;101351.19;;;21.83;73.65
81387;BME280;70842;50.744;7.114;2023-08-17T09:00:45;101345.84;;;21.75;74.05
81387;BME280;70842;50.744;7.114;2023-08-17T09:03:15;101347.03;;;21.72;74.16
81387;BME280;70842;50.744;7.114;2023-08-17T09:05:52;101344.66;;;22.00;73.26
81387;BME280;70842;50.744;7.114;2023-08-17T09:08:22;101338.78;;;21.97;72.92
81387;BME280;70842;50.744;7.114;2023-08-17T09:10:49;101347.84;;;22.18;72.15
81387;BME280;70842;50.744;7.114;2023-08-17T09:13:15;101343.16;;;22.35;71.64
81387;BME280;70842;50.744;7.114;2023-08-17T09:15:42;101331.53;;;22.34;71.50
81387;BME280;70842;50.744;7.114;2023-08-17T09:18:09;101335.97;;;22.27;71.82
81387;BME280;70842;50.744;7.114;2023-08-17T09:20:43;101336.25;;;21.95;73.10
81387;BME280;70842;50.744;7.114;2023-08-17T09:23:15;101339.03;;;21.87;73.49
81387;BME280;70842;50.744;7.114;2023-08-17T09:25:44;101338.75;;;21.82;73.32
81387;BME280;70842;50.744;7.114;2023-08-17T09:28:15;101339.91;;;22.02;72.42
81387;BME280;70842;50.744;7.114;2023-08-17T09:30:56;101347.97;;;21.57;74.46
81387;BME280;70842;50.744;7.114;2023-08-17T09:33:28;101348.88;;;21.49;75.22
81387;BME280;70842;50.744;7.114;2023-08-17T09:35:56;101340.88;;;22.09;73.12
81387;BME280;70842;50.744;7.114;2023-08-17T09:38:25;101340.41;;;21.83;73.50
81387;BME280;70842;50.744;7.114;2023-08-17T09:40:52;101333.63;;;21.87;73.55
81387;BME280;70842;50.744;7.114;2023-08-17T09:43:19;101334.88;;;22.36;72.20
81387;BME280;70842;50.744;7.114;2023-08-17T09:45:48;101340.00;;;22.46;72.02
81387;BME280;70842;50.744;7.114;2023-08-17T09:48:18;101334.31;;;22.26;71.85
81387;BME280;70842;50.744;7.114;2023-08-17T09:50:47;101343.53;;;22.46;71.99
81387;BME280;70842;50.744;7.114;2023-08-17T09:53:14;101342.09;;;22.21;71.82
81387;BME280;70842;50.744;7.114;2023-08-17T09:55:42;101332.84;;;22.53;71.78
81387;BME280;70842;50.744;7.114;2023-08-17T09:58:10;101321.03;;;22.69;71.12
81387;BME280;70842;50.744;7.114;2023-08-17T10:00:48;101320.59;;;22.80;70.92
81387;BME280;70842;50.744;7.114;2023-08-17T10:03:18;101318.59;;;22.88;70.08
81387;BME280;70842;50.744;7.114;2023-08-17T10:05:56;101325.78;;;22.81;69.52
81387;BME280;70842;50.744;7.114;2023-08-17T10:08:26;101321.97;;;22.90;69.02
81387;BME280;70842;50.744;7.114;2023-08-17T10:10:54;101324.66;;;23.05;69.41
81387;BME280;70842;50.744;7.114;2023-08-17T10:13:31;101318.97;;;23.00;69.71
81387;BME280;70842;50.744;7.114;2023-08-17T10:16:12;101314.34;;;22.79;70.07
81387;BME280;70842;50.744;7.114;2023-08-17T10:21:44;101319.81;;;22.86;70.43
81387;BME280;70842;50.744;7.114;2023-08-17T10:24:13;101321.75;;;23.06;69.43
81387;BME280;70842;50.744;7.114;2023-08-17T10:26:40;101312.56;;;22.72;70.58
81387;BME280;70842;50.744;7.114;2023-08-17T10:29:07;101315.44;;;22.85;70.90
81387;BME280;70842;50.744;7.114;2023-08-17T10:31:44;101312.72;;;22.99;70.31
81387;BME280;70842;50.744;7.114;2023-08-17T10:34:14;101313.69;;;23.27;70.35
81387;BME280;70842;50.744;7.114;2023-08-17T10:36:41;101317.22;;;23.28;68.64
81387;BME280;70842;50.744;7.114;2023-08-17T10:39:22;101317.06;;;23.15;68.64
81387;BME280;70842;50.744;7.114;2023-08-17T10:41:55;101325.06;;;23.38;68.40
81387;BME280;70842;50.744;7.114;2023-08-17T10:47:32;101321.84;;;23.70;68.94
81387;BME280;70842;50.744;7.114;2023-08-17T10:50:22;101318.25;;;23.27;68.45
81387;BME280;70842;50.744;7.114;2023-08-17T10:52:49;101325.34;;;23.28;67.72
81387;BME280;70842;50.744;7.114;2023-08-17T10:55:16;101319.63;;;23.38;67.75
81387;BME280;70842;50.744;7.114;2023-08-17T10:57:45;101326.28;;;23.77;66.08
81387;BME280;70842;50.744;7.114;2023-08-17T11:00:19;101321.66;;;23.50;66.94
81387;BME280;70842;50.744;7.114;2023-08-17T11:03:00;101327.91;;;24.14;64.71
81387;BME280;70842;50.744;7.114;2023-08-17T11:05:42;101331.09;;;24.03;65.19
81387;BME280;70842;50.744;7.114;2023-08-17T11:08:12;101333.50;;;23.49;65.72
81387;BME280;70842;50.744;7.114;2023-08-17T11:10:57;101326.09;;;23.22;67.04
81387;BME280;70842;50.744;7.114;2023-08-17T11:13:27;101329.47;;;23.60;66.10
81387;BME280;70842;50.744;7.114;2023-08-17T11:15:54;101329.88;;;23.42;66.89
81387;BME280;70842;50.744;7.114;2023-08-17T11:18:21;101327.19;;;24.06;65.30
81387;BME280;70842;50.744;7.114;2023-08-17T11:20:49;101332.16;;;24.23;65.04
81387;BME280;70842;50.744;7.114;2023-08-17T11:23:16;101335.22;;;24.20;65.24
81387;BME280;70842;50.744;7.114;2023-08-17T11:25:42;101326.78;;;24.30;65.01
81387;BME280;70842;50.744;7.114;2023-08-17T11:28:09;101321.69;;;24.48;63.89
81387;BME280;70842;50.744;7.114;2023-08-17T11:30:36;101317.91;;;24.15;64.43
81387;BME280;70842;50.744;7.114;2023-08-17T11:33:05;101323.66;;;24.05;64.16
81387;BME280;70842;50.744;7.114;2023-08-17T11:35:32;101323.13;;;23.53;65.46
81387;BME280;70842;50.744;7.114;2023-08-17T11:37:59;101323.13;;;24.16;64.96
81387;BME280;70842;50.744;7.114;2023-08-17T11:40:26;101319.72;;;24.35;63.65
81387;BME280;70842;50.744;7.114;2023-08-17T11:42:53;101315.22;;;23.93;64.60
81387;BME280;70842;50.744;7.114;2023-08-17T11:45:19;101306.91;;;24.50;63.63
81387;BME280;70842;50.744;7.114;2023-08-17T11:47:47;101308.78;;;24.50;64.03
81387;BME280;70842;50.744;7.114;2023-08-17T11:50:13;101317.13;;;24.21;64.87
81387;BME280;70842;50.744;7.114;2023-08-17T11:52:46;101319.19;;;24.19;64.83
81387;BME280;70842;50.744;7.114;2023-08-17T11:55:16;101312.31;;;24.50;62.88
81387;BME280;70842;50.744;7.114;2023-08-17T11:57:44;101303.22;;;24.58;62.33
81387;BME280;70842;50.744;7.114;2023-08-17T12:00:19;101312.75;;;24.20;63.61
81387;BME280;70842;50.744;7.114;2023-08-17T12:02:50;101313.47;;;24.07;63.67
81387;BME280;70842;50.744;7.114;2023-08-17T12:05:21;101318.06;;;24.34;63.23
81387;BME280;70842;50.744;7.114;2023-08-17T12:07:50;101323.75;;;24.46;63.69
81387;BME280;70842;50.744;7.114;2023-08-17T12:10:18;101323.13;;;24.44;63.53
81387;BME280;70842;50.744;7.114;2023-08-17T12:12:44;101326.94;;;24.49;62.92
81387;BME280;70842;50.744;7.114;2023-08-17T12:15:12;101319.28;;;24.32;63.33
81387;BME280;70842;50.744;7.114;2023-08-17T12:17:46;101324.69;;;24.04;64.28
81387;BME280;70842;50.744;7.114;2023-08-17T12:20:17;101336.66;;;23.95;65.32
81387;BME280;70842;50.744;7.114;2023-08-17T12:22:44;101331.59;;;23.64;66.91
81387;BME280;70842;50.744;7.114;2023-08-17T12:25:11;101326.88;;;23.94;66.20
81387;BME280;70842;50.744;7.114;2023-08-17T12:27:38;101329.34;;;24.38;65.12
81387;BME280;70842;50.744;7.114;2023-08-17T12:30:04;101326.31;;;24.26;65.32
81387;BME280;70842;50.744;7.114;2023-08-17T12:32:31;101330.78;;;24.34;64.67
81387;BME280;70842;50.744;7.114;2023-08-17T12:34:57;101321.59;;;24.35;64.96
81387;BME280;70842;50.744;7.114;2023-08-17T12:37:24;101323.59;;;23.98;66.55
81387;BME280;70842;50.744;7.114;2023-08-17T12:39:50;101327.06;;;23.71;66.65
81387;BME280;70842;50.744;7.114;2023-08-17T12:42:17;101319.53;;;24.09;66.92
81387;BME280;70842;50.744;7.114;2023-08-17T12:44:44;101319.56;;;24.43;65.78
81387;BME280;70842;50.744;7.114;2023-08-17T12:47:10;101323.53;;;24.41;65.37
81387;BME280;70842;50.744;7.114;2023-08-17T12:49:37;101314.06;;;24.58;65.53
81387;BME280;70842;50.744;7.114;2023-08-17T12:52:05;101322.78;;;24.26;65.73
81387;BME280;70842;50.744;7.114;2023-08-17T12:54:31;101322.34;;;24.22;65.60
81387;BME280;70842;50.744;7.114;2023-08-17T12:56:58;101310.84;;;24.20;65.48
81387;BME280;70842;50.744;7.114;2023-08-17T12:59:26;101308.00;;;23.79;66.76
81387;BME280;70842;50.744;7.114;2023-08-17T13:01:52;101314.81;;;23.96;65.98
81387;BME280;70842;50.744;7.114;2023-08-17T13:04:19;101302.69;;;23.92;66.24